sensor_id;sensor_type;location;lat;lon;timestamp;pressure;altitude;pressure_sealevel;temperature;humidity
3524;BME280;1776;53.330;11.498;2023-03-01T00:00:51;23759.88;;;-147.39;57.01
3524;BME280;1776;53.330;11.498;2023-03-01T00:03:16;23810.69;;;-147.39;57.08
3524;BME280;1776;53.330;11.498;2023-03-01T00:05:45;23786.28;;;-147.39;57.18
3524;BME280;1776;53.330;11.498;2023-03-01T00:08:11;23916.41;;;-147.39;57.12
3524;BME280;1776;53.330;11.498;2023-03-01T00:10:36;23780.19;;;-147.39;57.38
3524;BME280;1776;53.330;11.498;2023-03-01T00:13:02;23768.00;;;-147.39;57.05
3524;BME280;1776;53.330;11.498;2023-03-01T00:15:30;23810.69;;;-147.39;57.28
3524;BME280;1776;53.330;11.498;2023-03-01T00:17:55;23755.81;;;-147.39;57.17
3524;BME280;1776;53.330;11.498;2023-03-01T00:20:21;23735.47;;;-147.39;57.14
3524;BME280;1776;53.330;11.498;2023-03-01T00:22:46;23794.44;;;-147.39;57.51
3524;BME280;1776;53.330;11.498;2023-03-01T00:25:11;23774.09;;;-147.39;57.41
3524;BME280;1776;53.330;11.498;2023-03-01T00:27:36;23788.31;;;-147.39;57.31
3524;BME280;1776;53.330;11.498;2023-03-01T00:30:02;23749.69;;;-147.39;57.45
3524;BME280;1776;53.330;11.498;2023-03-01T00:32:27;23745.63;;;-147.39;57.35
3524;BME280;1776;53.330;11.498;2023-03-01T00:34:53;23753.75;;;-147.39;57.61
3524;BME280;1776;53.330;11.498;2023-03-01T00:37:21;23759.88;;;-147.39;57.42
3524;BME280;1776;53.330;11.498;2023-03-01T00:39:47;23772.06;;;-147.39;57.54
3524;BME280;1776;53.330;11.498;2023-03-01T00:42:13;23741.56;;;-147.39;57.58
3524;BME280;1776;53.330;11.498;2023-03-01T00:44:38;23737.50;;;-147.39;57.75
3524;BME280;1776;53.330;11.498;2023-03-01T00:47:03;23727.34;;;-147.39;57.71
3524;BME280;1776;53.330;11.498;2023-03-01T00:49:28;23751.72;;;-147.39;57.79
3524;BME280;1776;53.330;11.498;2023-03-01T00:51:54;23735.47;;;-147.39;57.59
3524;BME280;1776;53.330;11.498;2023-03-01T00:54:19;23749.69;;;-147.39;57.74
3524;BME280;1776;53.330;11.498;2023-03-01T00:56:44;23745.63;;;-147.39;57.69
3524;BME280;1776;53.330;11.498;2023-03-01T00:59:09;23784.25;;;-147.39;57.52
3524;BME280;1776;53.330;11.498;2023-03-01T01:01:35;23765.97;;;-147.39;57.47
3524;BME280;1776;53.330;11.498;2023-03-01T01:04:05;23733.44;;;-147.39;58.00
3524;BME280;1776;53.330;11.498;2023-03-01T01:06:36;23737.50;;;-147.39;58.08
3524;BME280;1776;53.330;11.498;2023-03-01T01:09:03;23818.81;;;-147.39;58.09
3524;BME280;1776;53.330;11.498;2023-03-01T01:11:30;23713.09;;;-147.39;58.24
3524;BME280;1776;53.330;11.498;2023-03-01T01:13:56;23794.44;;;-147.39;58.36
3524;BME280;1776;53.330;11.498;2023-03-01T01:16:23;23731.41;;;-147.39;58.00
3524;BME280;1776;53.330;11.498;2023-03-01T01:18:49;23719.19;;;-147.39;58.22
3524;BME280;1776;53.330;11.498;2023-03-01T01:21:17;23688.72;;;-147.39;58.14
3524;BME280;1776;53.330;11.498;2023-03-01T01:23:44;23713.09;;;-147.39;58.73
3524;BME280;1776;53.330;11.498;2023-03-01T01:26:18;23721.25;;;-147.39;58.50
3524;BME280;1776;53.330;11.498;2023-03-01T01:28:44;23680.56;;;-147.39;58.81
3524;BME280;1776;53.330;11.498;2023-03-01T01:31:09;23729.38;;;-147.39;58.53
3524;BME280;1776;53.330;11.498;2023-03-01T01:33:35;23694.81;;;-147.39;58.97
3524;BME280;1776;53.330;11.498;2023-03-01T01:36:02;23711.06;;;-147.39;58.77
3524;BME280;1776;53.330;11.498;2023-03-01T01:38:28;23711.06;;;-147.39;58.98
3524;BME280;1776;53.330;11.498;2023-03-01T01:40:53;23684.63;;;-147.39;58.87
3524;BME280;1776;53.330;11.498;2023-03-01T01:43:38;23674.47;;;-147.39;58.92
3524;BME280;1776;53.330;11.498;2023-03-01T01:46:06;23688.72;;;-147.39;58.54
3524;BME280;1776;53.330;11.498;2023-03-01T01:48:51;23631.78;;;-147.39;59.14
3524;BME280;1776;53.330;11.498;2023-03-01T01:51:25;23672.44;;;-147.39;59.23
3524;BME280;1776;53.330;11.498;2023-03-01T01:53:57;23715.13;;;-147.39;59.02
3524;BME280;1776;53.330;11.498;2023-03-01T01:56:25;23668.38;;;-147.39;59.22
3524;BME280;1776;53.330;11.498;2023-03-01T01:58:51;23678.53;;;-147.39;59.03
3524;BME280;1776;53.330;11.498;2023-03-01T02:01:17;23670.41;;;-147.39;59.23
3524;BME280;1776;53.330;11.498;2023-03-01T02:03:44;23682.59;;;-147.39;59.02
3524;BME280;1776;53.330;11.498;2023-03-01T02:06:21;23160.16;;;-147.39;58.84
3524;BME280;1776;53.330;11.498;2023-03-01T02:08:55;23633.81;;;-147.39;59.46
3524;BME280;1776;53.330;11.498;2023-03-01T02:11:22;23674.47;;;-147.39;59.46
3524;BME280;1776;53.330;11.498;2023-03-01T02:13:48;23686.69;;;-147.39;59.61
3524;BME280;1776;53.330;11.498;2023-03-01T02:16:15;23648.03;;;-147.39;59.79
3524;BME280;1776;53.330;11.498;2023-03-01T02:18:41;23658.22;;;-147.39;59.37
3524;BME280;1776;53.330;11.498;2023-03-01T02:23:47;23662.28;;;-147.39;59.03
3524;BME280;1776;53.330;11.498;2023-03-01T02:26:23;23678.53;;;-147.39;59.20
3524;BME280;1776;53.330;11.498;2023-03-01T02:28:52;23635.84;;;-147.39;59.33
3524;BME280;1776;53.330;11.498;2023-03-01T02:31:20;23631.78;;;-147.39;59.40
3524;BME280;1776;53.330;11.498;2023-03-01T02:34:04;23629.75;;;-147.39;59.50
3524;BME280;1776;53.330;11.498;2023-03-01T02:36:35;23664.31;;;-147.39;59.61
3524;BME280;1776;53.330;11.498;2023-03-01T02:39:04;23619.59;;;-147.39;59.46
3524;BME280;1776;53.330;11.498;2023-03-01T02:44:52;23674.47;;;-147.39;59.72
3524;BME280;1776;53.330;11.498;2023-03-01T02:47:18;23633.81;;;-147.39;59.80
3524;BME280;1776;53.330;11.498;2023-03-01T02:49:44;23617.56;;;-147.39;59.70
3524;BME280;1776;53.330;11.498;2023-03-01T02:52:37;23643.97;;;-147.39;59.40
3524;BME280;1776;53.330;11.498;2023-03-01T02:55:11;23619.59;;;-147.39;59.63
3524;BME280;1776;53.330;11.498;2023-03-01T02:57:39;23650.09;;;-147.39;59.61
3524;BME280;1776;53.330;11.498;2023-03-01T03:00:19;23792.41;;;-147.39;59.86
3524;BME280;1776;53.330;11.498;2023-03-01T03:02:50;23617.56;;;-147.39;60.16
3524;BME280;1776;53.330;11.498;2023-03-01T03:05:20;23690.75;;;-147.39;60.15
3524;BME280;1776;53.330;11.498;2023-03-01T03:07:47;23654.16;;;-147.39;60.06
3524;BME280;1776;53.330;11.498;2023-03-01T03:10:35;23619.59;;;-147.39;59.96
3524;BME280;1776;53.330;11.498;2023-03-01T03:13:08;23613.47;;;-147.39;60.21
3524;BME280;1776;53.330;11.498;2023-03-01T03:15:34;23572.81;;;-147.39;60.23
3524;BME280;1776;53.330;11.498;2023-03-01T03:18:03;23585.03;;;-147.39;60.36
3524;BME280;1776;53.330;11.498;2023-03-01T03:20:29;23627.72;;;-147.39;60.69
3524;BME280;1776;53.330;11.498;2023-03-01T03:22:57;23650.09;;;-147.39;60.23
3524;BME280;1776;53.330;11.498;2023-03-01T03:25:24;23672.44;;;-147.39;60.28
3524;BME280;1776;53.330;11.498;2023-03-01T03:27:51;23633.81;;;-147.39;60.27
3524;BME280;1776;53.330;11.498;2023-03-01T03:30:22;23574.84;;;-147.39;60.57
3524;BME280;1776;53.330;11.498;2023-03-01T03:32:48;23495.56;;;-147.39;60.35
3524;BME280;1776;53.330;11.498;2023-03-01T03:35:23;23304.47;;;-147.39;60.80
3524;BME280;1776;53.330;11.498;2023-03-01T03:37:50;23631.78;;;-147.39;60.56
3524;BME280;1776;53.330;11.498;2023-03-01T03:42:59;23583.00;;;-147.39;60.84
3524;BME280;1776;53.330;11.498;2023-03-01T03:45:24;23621.63;;;-147.39;60.50
3524;BME280;1776;53.330;11.498;2023-03-01T03:47:49;23080.88;;;-147.39;60.43
3524;BME280;1776;53.330;11.498;2023-03-01T03:50:16;23648.03;;;-147.39;60.63
3524;BME280;1776;53.330;11.498;2023-03-01T03:52:42;23589.09;;;-147.39;60.79
3524;BME280;1776;53.330;11.498;2023-03-01T03:55:09;23578.94;;;-147.39;60.40
3524;BME280;1776;53.330;11.498;2023-03-01T03:57:39;23578.94;;;-147.39;60.14
3524;BME280;1776;53.330;11.498;2023-03-01T04:00:08;23576.88;;;-147.39;60.25
3524;BME280;1776;53.330;11.498;2023-03-01T04:02:41;23619.59;;;-147.39;60.31
3524;BME280;1776;53.330;11.498;2023-03-01T04:05:08;23595.19;;;-147.39;60.06
3524;BME280;1776;53.330;11.498;2023-03-01T04:07:35;23566.72;;;-147.39;60.52
3524;BME280;1776;53.330;11.498;2023-03-01T04:10:02;23572.81;;;-147.39;60.66
3524;BME280;1776;53.330;11.498;2023-03-01T04:12:28;23552.50;;;-147.39;60.75
3524;BME280;1776;53.330;11.498;2023-03-01T04:14:53;23361.41;;;-147.39;60.84
3524;BME280;1776;53.330;11.498;2023-03-01T04:17:19;23578.94;;;-147.39;60.34
3524;BME280;1776;53.330;11.498;2023-03-01T04:19:44;23550.47;;;-147.39;60.72
3524;BME280;1776;53.330;11.498;2023-03-01T04:22:13;23583.00;;;-147.39;60.59
3524;BME280;1776;53.330;11.498;2023-03-01T04:24:45;23556.56;;;-147.39;60.61
3524;BME280;1776;53.330;11.498;2023-03-01T04:27:11;23593.16;;;-147.39;60.85
3524;BME280;1776;53.330;11.498;2023-03-01T04:29:36;23566.72;;;-147.39;60.56
3524;BME280;1776;53.330;11.498;2023-03-01T04:32:02;23601.28;;;-147.39;59.98
3524;BME280;1776;53.330;11.498;2023-03-01T04:34:28;23548.44;;;-147.39;60.85
3524;BME280;1776;53.330;11.498;2023-03-01T04:36:54;23599.25;;;-147.39;60.74
3524;BME280;1776;53.330;11.498;2023-03-01T04:39:19;23574.84;;;-147.39;60.67
3524;BME280;1776;53.330;11.498;2023-03-01T04:41:44;23558.59;;;-147.39;60.70
3524;BME280;1776;53.330;11.498;2023-03-01T04:44:10;23599.25;;;-147.39;60.83
3524;BME280;1776;53.330;11.498;2023-03-01T04:46:36;23562.66;;;-147.39;61.26
3524;BME280;1776;53.330;11.498;2023-03-01T04:49:02;23564.69;;;-147.39;61.10
3524;BME280;1776;53.330;11.498;2023-03-01T04:51:28;23526.06;;;-147.39;61.38
3524;BME280;1776;53.330;11.498;2023-03-01T04:53:53;23544.38;;;-147.39;61.74
3524;BME280;1776;53.330;11.498;2023-03-01T04:56:19;23546.41;;;-147.39;61.43
3524;BME280;1776;53.330;11.498;2023-03-01T04:58:45;23554.53;;;-147.39;61.73
3524;BME280;1776;53.330;11.498;2023-03-01T05:01:12;23574.84;;;-147.39;61.48
3524;BME280;1776;53.330;11.498;2023-03-01T05:03:45;23515.91;;;-147.39;62.01
3524;BME280;1776;53.330;11.498;2023-03-01T05:06:11;23491.50;;;-147.39;61.95
3524;BME280;1776;53.330;11.498;2023-03-01T05:08:38;23534.19;;;-147.39;62.92
3524;BME280;1776;53.330;11.498;2023-03-01T05:11:03;23515.91;;;-147.39;62.74
3524;BME280;1776;53.330;11.498;2023-03-01T05:13:28;23265.84;;;-147.39;62.51
3524;BME280;1776;53.330;11.498;2023-03-01T05:16:00;23536.22;;;-147.39;62.57
3524;BME280;1776;53.330;11.498;2023-03-01T05:18:26;23513.88;;;-147.39;62.19
3524;BME280;1776;53.330;11.498;2023-03-01T05:20:53;23507.78;;;-147.39;62.20
3524;BME280;1776;53.330;11.498;2023-03-01T05:23:21;23505.75;;;-147.39;62.46
3524;BME280;1776;53.330;11.498;2023-03-01T05:25:46;23534.19;;;-147.39;61.96
3524;BME280;1776;53.330;11.498;2023-03-01T05:28:11;23505.75;;;-147.39;62.18
3524;BME280;1776;53.330;11.498;2023-03-01T05:30:37;23513.88;;;-147.39;62.14
3524;BME280;1776;53.330;11.498;2023-03-01T05:33:07;23477.28;;;-147.39;62.38
3524;BME280;1776;53.330;11.498;2023-03-01T05:35:39;23517.94;;;-147.39;62.15
3524;BME280;1776;53.330;11.498;2023-03-01T05:38:04;23530.13;;;-147.39;62.52
3524;BME280;1776;53.330;11.498;2023-03-01T05:40:29;23530.13;;;-147.39;62.20
3524;BME280;1776;53.330;11.498;2023-03-01T05:42:56;23495.56;;;-147.39;62.07
3524;BME280;1776;53.330;11.498;2023-03-01T05:45:23;23522.00;;;-147.39;62.38
3524;BME280;1776;53.330;11.498;2023-03-01T05:47:50;23458.97;;;-147.39;62.11
3524;BME280;1776;53.330;11.498;2023-03-01T05:50:18;23450.84;;;-147.39;62.21
3524;BME280;1776;53.330;11.498;2023-03-01T05:52:46;23597.22;;;-147.39;61.91
3524;BME280;1776;53.330;11.498;2023-03-01T05:55:11;23491.50;;;-147.39;62.01
3524;BME280;1776;53.330;11.498;2023-03-01T05:57:37;23534.19;;;-147.39;61.63
3524;BME280;1776;53.330;11.498;2023-03-01T06:00:02;23493.53;;;-147.39;61.28
3524;BME280;1776;53.330;11.498;2023-03-01T06:02:28;23509.81;;;-147.39;61.87
3524;BME280;1776;53.330;11.498;2023-03-01T06:04:54;23491.50;;;-147.39;61.71
3524;BME280;1776;53.330;11.498;2023-03-01T06:07:19;23499.63;;;-147.39;61.35
3524;BME280;1776;53.330;11.498;2023-03-01T06:09:44;23558.59;;;-147.39;61.59
3524;BME280;1776;53.330;11.498;2023-03-01T06:12:10;23463.03;;;-147.39;61.66
3524;BME280;1776;53.330;11.498;2023-03-01T06:14:35;23463.03;;;-147.39;61.85
3524;BME280;1776;53.330;11.498;2023-03-01T06:17:00;23479.31;;;-147.39;61.93
3524;BME280;1776;53.330;11.498;2023-03-01T06:19:25;23489.47;;;-147.39;61.69
3524;BME280;1776;53.330;11.498;2023-03-01T06:21:51;23536.22;;;-147.39;61.57
3524;BME280;1776;53.330;11.498;2023-03-01T06:24:16;23410.19;;;-147.39;62.57
3524;BME280;1776;53.330;11.498;2023-03-01T06:26:41;23481.34;;;-147.39;62.31
3524;BME280;1776;53.330;11.498;2023-03-01T06:29:07;23522.00;;;-147.39;61.74
3524;BME280;1776;53.330;11.498;2023-03-01T06:31:33;23495.56;;;-147.39;61.31
3524;BME280;1776;53.330;11.498;2023-03-01T06:33:59;23503.72;;;-147.39;61.31
3524;BME280;1776;53.330;11.498;2023-03-01T06:36:24;22897.94;;;-147.39;62.69
3524;BME280;1776;53.330;11.498;2023-03-01T06:38:49;22741.41;;;-147.39;63.63
3524;BME280;1776;53.330;11.498;2023-03-01T06:41:14;23475.25;;;-147.39;63.86
3524;BME280;1776;53.330;11.498;2023-03-01T06:43:40;23461.00;;;-147.39;65.04
3524;BME280;1776;53.330;11.498;2023-03-01T06:46:05;23428.47;;;-147.39;65.28
3524;BME280;1776;53.330;11.498;2023-03-01T06:48:32;23343.09;;;-147.39;65.02
3524;BME280;1776;53.330;11.498;2023-03-01T06:50:59;23513.88;;;-147.39;65.41
3524;BME280;1776;53.330;11.498;2023-03-01T06:53:26;23371.56;;;-147.39;65.58
3524;BME280;1776;53.330;11.498;2023-03-01T06:55:58;23369.53;;;-147.39;65.95
3524;BME280;1776;53.330;11.498;2023-03-01T06:58:25;23395.97;;;-147.39;66.09
3524;BME280;1776;53.330;11.498;2023-03-01T07:00:50;23406.13;;;-147.39;65.61
3524;BME280;1776;53.330;11.498;2023-03-01T07:03:15;23369.53;;;-147.39;65.57
3524;BME280;1776;53.330;11.498;2023-03-01T07:05:40;23375.63;;;-147.39;64.86
3524;BME280;1776;53.330;11.498;2023-03-01T07:08:06;23406.13;;;-147.39;64.64
3524;BME280;1776;53.330;11.498;2023-03-01T07:10:31;23406.13;;;-147.39;64.51
3524;BME280;1776;53.330;11.498;2023-03-01T07:12:57;23391.91;;;-147.39;64.16
3524;BME280;1776;53.330;11.498;2023-03-01T07:15:23;23387.81;;;-147.39;63.56
3524;BME280;1776;53.330;11.498;2023-03-01T07:17:48;23422.38;;;-147.39;63.82
3524;BME280;1776;53.330;11.498;2023-03-01T07:20:16;23450.84;;;-147.39;64.14
3524;BME280;1776;53.330;11.498;2023-03-01T07:22:41;23430.53;;;-147.39;64.73
3524;BME280;1776;53.330;11.498;2023-03-01T07:25:08;23373.59;;;-147.39;65.85
3524;BME280;1776;53.330;11.498;2023-03-01T07:27:33;23375.63;;;-147.39;65.63
3524;BME280;1776;53.330;11.498;2023-03-01T07:29:58;23369.53;;;-147.39;65.34
3524;BME280;1776;53.330;11.498;2023-03-01T07:32:24;23381.72;;;-147.39;64.88
3524;BME280;1776;53.330;11.498;2023-03-01T07:34:50;23578.94;;;-147.39;64.69
3524;BME280;1776;53.330;11.498;2023-03-01T07:37:16;23393.94;;;-147.39;64.94
3524;BME280;1776;53.330;11.498;2023-03-01T07:39:41;23408.16;;;-147.39;64.39
3524;BME280;1776;53.330;11.498;2023-03-01T07:42:07;23420.34;;;-147.39;63.50
3524;BME280;1776;53.330;11.498;2023-03-01T07:44:33;23416.28;;;-147.39;63.36
3524;BME280;1776;53.330;11.498;2023-03-01T07:46:59;23448.81;;;-147.39;62.84
3524;BME280;1776;53.330;11.498;2023-03-01T07:49:25;23446.78;;;-147.39;62.34
3524;BME280;1776;53.330;11.498;2023-03-01T07:51:51;23544.38;;;-147.39;61.63
3524;BME280;1776;53.330;11.498;2023-03-01T07:54:17;23469.16;;;-147.39;61.38
3524;BME280;1776;53.330;11.498;2023-03-01T07:56:43;23517.94;;;-147.39;61.01
3524;BME280;1776;53.330;11.498;2023-03-01T07:59:08;23540.28;;;-147.39;60.40
3524;BME280;1776;53.330;11.498;2023-03-01T08:01:34;23788.31;;;-147.39;56.33
3524;BME280;1776;53.330;11.498;2023-03-01T08:03:59;24032.31;;;-147.39;50.36
3524;BME280;1776;53.330;11.498;2023-03-01T08:06:24;24404.41;;;-147.39;46.08
3524;BME280;1776;53.330;11.498;2023-03-01T08:08:50;24689.09;;;-147.39;42.69
3524;BME280;1776;53.330;11.498;2023-03-01T08:11:15;24992.13;;;-147.39;38.37
3524;BME280;1776;53.330;11.498;2023-03-01T08:13:42;25354.13;;;-147.39;35.50
3524;BME280;1776;53.330;11.498;2023-03-01T08:16:11;25543.28;;;-147.39;34.07
3524;BME280;1776;53.330;11.498;2023-03-01T08:18:37;25569.75;;;-147.39;33.65
3524;BME280;1776;53.330;11.498;2023-03-01T08:21:05;25738.56;;;-147.39;32.53
3524;BME280;1776;53.330;11.498;2023-03-01T08:23:31;25976.56;;;-147.39;31.10
3524;BME280;1776;53.330;11.498;2023-03-01T08:26:08;26068.09;;;-147.39;30.15
3524;BME280;1776;53.330;11.498;2023-03-01T08:28:35;26053.88;;;-147.39;30.28
3524;BME280;1776;53.330;11.498;2023-03-01T08:31:01;26198.31;;;-147.39;29.68
3524;BME280;1776;53.330;11.498;2023-03-01T08:33:26;26289.84;;;-147.39;29.24
3524;BME280;1776;53.330;11.498;2023-03-01T08:35:52;26298.00;;;-147.39;29.16
3524;BME280;1776;53.330;11.498;2023-03-01T08:38:17;26251.19;;;-147.39;28.84
3524;BME280;1776;53.330;11.498;2023-03-01T08:40:42;25919.59;;;-147.39;31.07
3524;BME280;1776;53.330;11.498;2023-03-01T08:43:08;26106.75;;;-147.39;30.12
3524;BME280;1776;53.330;11.498;2023-03-01T08:45:33;26261.38;;;-147.39;29.15
3524;BME280;1776;53.330;11.498;2023-03-01T08:47:58;26218.66;;;-147.39;29.73
3524;BME280;1776;53.330;11.498;2023-03-01T08:50:23;26184.06;;;-147.39;30.13
3524;BME280;1776;53.330;11.498;2023-03-01T08:52:49;26243.06;;;-147.39;29.60
3524;BME280;1776;53.330;11.498;2023-03-01T08:55:15;26192.19;;;-147.39;30.88
3524;BME280;1776;53.330;11.498;2023-03-01T08:57:42;25941.97;;;-147.39;31.76
3524;BME280;1776;53.330;11.498;2023-03-01T09:00:09;26116.94;;;-147.39;31.00
3524;BME280;1776;53.330;11.498;2023-03-01T09:02:36;26159.66;;;-147.39;30.77
3524;BME280;1776;53.330;11.498;2023-03-01T09:05:01;26019.28;;;-147.39;31.58
3524;BME280;1776;53.330;11.498;2023-03-01T09:07:27;25803.66;;;-147.39;32.73
3524;BME280;1776;53.330;11.498;2023-03-01T09:09:55;25988.78;;;-147.39;32.72
3524;BME280;1776;53.330;11.498;2023-03-01T09:12:20;26062.00;;;-147.39;31.45
3524;BME280;1776;53.330;11.498;2023-03-01T09:14:46;26306.13;;;-147.39;31.17
3524;BME280;1776;53.330;11.498;2023-03-01T09:17:11;26204.41;;;-147.39;30.81
3524;BME280;1776;53.330;11.498;2023-03-01T09:19:37;25962.31;;;-147.39;32.66
3524;BME280;1776;53.330;11.498;2023-03-01T09:22:03;26029.47;;;-147.39;32.62
3524;BME280;1776;53.330;11.498;2023-03-01T09:24:29;26304.09;;;-147.39;31.16
3524;BME280;1776;53.330;11.498;2023-03-01T09:26:55;26275.63;;;-147.39;32.22
3524;BME280;1776;53.330;11.498;2023-03-01T09:29:20;26403.78;;;-147.39;31.31
3524;BME280;1776;53.330;11.498;2023-03-01T09:31:46;25901.31;;;-147.39;32.57
3524;BME280;1776;53.330;11.498;2023-03-01T09:34:11;25712.13;;;-147.39;35.17
3524;BME280;1776;53.330;11.498;2023-03-01T09:36:38;25984.69;;;-147.39;34.27
3524;BME280;1776;53.330;11.498;2023-03-01T09:39:04;26131.16;;;-147.39;33.81
3524;BME280;1776;53.330;11.498;2023-03-01T09:44:27;26145.41;;;-147.39;34.64
3524;BME280;1776;53.330;11.498;2023-03-01T09:46:55;25689.75;;;-147.39;38.64
3524;BME280;1776;53.330;11.498;2023-03-01T09:49:24;26059.97;;;-147.39;36.51
3524;BME280;1776;53.330;11.498;2023-03-01T09:54:23;25889.09;;;-147.39;38.08
3524;BME280;1776;53.330;11.498;2023-03-01T09:56:59;25990.81;;;-147.39;36.41
3524;BME280;1776;53.330;11.498;2023-03-01T10:04:57;25679.56;;;-147.39;39.27
3524;BME280;1776;53.330;11.498;2023-03-01T10:10:38;24723.66;;;-147.39;41.87
3524;BME280;1776;53.330;11.498;2023-03-01T10:13:21;25132.44;;;-147.39;46.45
3524;BME280;1776;53.330;11.498;2023-03-01T10:15:53;25144.66;;;-147.39;47.04
3524;BME280;1776;53.330;11.498;2023-03-01T10:18:31;25120.25;;;-147.39;45.80
3524;BME280;1776;53.330;11.498;2023-03-01T10:20:59;24992.13;;;-147.39;48.61
3524;BME280;1776;53.330;11.498;2023-03-01T10:23:27;24959.56;;;-147.39;49.42
3524;BME280;1776;53.330;11.498;2023-03-01T10:31:12;24953.47;;;-147.39;49.36
3524;BME280;1776;53.330;11.498;2023-03-01T10:33:38;25004.31;;;-147.39;49.13
3524;BME280;1776;53.330;11.498;2023-03-01T10:36:07;25012.44;;;-147.39;49.07
3524;BME280;1776;53.330;11.498;2023-03-01T10:38:51;24910.75;;;-147.39;50.09
3524;BME280;1776;53.330;11.498;2023-03-01T10:41:18;24870.09;;;-147.39;50.42
3524;BME280;1776;53.330;11.498;2023-03-01T10:43:49;24849.75;;;-147.39;50.88
3524;BME280;1776;53.330;11.498;2023-03-01T10:46:36;24864.00;;;-147.39;50.79
3524;BME280;1776;53.330;11.498;2023-03-01T10:49:20;24937.19;;;-147.39;49.97
3524;BME280;1776;53.330;11.498;2023-03-01T10:51:48;24922.97;;;-147.39;50.58
3524;BME280;1776;53.330;11.498;2023-03-01T11:02:22;24947.38;;;-147.39;50.27
3524;BME280;1776;53.330;11.498;2023-03-01T11:05:03;25004.31;;;-147.39;50.32
3524;BME280;1776;53.330;11.498;2023-03-01T11:07:51;24971.78;;;-147.39;49.94
3524;BME280;1776;53.330;11.498;2023-03-01T11:10:25;24988.03;;;-147.39;50.11
3524;BME280;1776;53.330;11.498;2023-03-01T11:12:52;24971.78;;;-147.39;50.14
3524;BME280;1776;53.330;11.498;2023-03-01T11:15:23;25014.47;;;-147.39;50.82
3524;BME280;1776;53.330;11.498;2023-03-01T11:17:49;25006.34;;;-147.39;50.46
3524;BME280;1776;53.330;11.498;2023-03-01T11:20:30;24971.78;;;-147.39;50.36
3524;BME280;1776;53.330;11.498;2023-03-01T11:23:04;25057.19;;;-147.39;49.97
3524;BME280;1776;53.330;11.498;2023-03-01T11:25:35;25108.03;;;-147.39;49.76
3524;BME280;1776;53.330;11.498;2023-03-01T11:28:04;25154.81;;;-147.39;49.39
3524;BME280;1776;53.330;11.498;2023-03-01T11:30:40;25132.44;;;-147.39;48.27
3524;BME280;1776;53.330;11.498;2023-03-01T11:33:20;25095.84;;;-147.39;48.68
3524;BME280;1776;53.330;11.498;2023-03-01T11:36:02;25144.66;;;-147.39;48.32
3524;BME280;1776;53.330;11.498;2023-03-01T11:38:32;25232.09;;;-147.39;47.77
3524;BME280;1776;53.330;11.498;2023-03-01T11:41:14;25207.69;;;-147.39;47.18
3524;BME280;1776;53.330;11.498;2023-03-01T12:08:29;25301.25;;;-147.39;45.83
3524;BME280;1776;53.330;11.498;2023-03-01T12:11:13;25356.16;;;-147.39;45.80
3524;BME280;1776;53.330;11.498;2023-03-01T12:17:11;25376.50;;;-147.39;44.11
3524;BME280;1776;53.330;11.498;2023-03-01T12:19:54;25402.94;;;-147.39;44.39
3524;BME280;1776;53.330;11.498;2023-03-01T12:25:34;25362.28;;;-147.39;43.73
3524;BME280;1776;53.330;11.498;2023-03-01T12:37:10;25427.34;;;-147.39;43.66
3524;BME280;1776;53.330;11.498;2023-03-01T12:39:51;25449.72;;;-147.39;43.59
3524;BME280;1776;53.330;11.498;2023-03-01T12:42:38;25437.53;;;-147.39;42.01
3524;BME280;1776;53.330;11.498;2023-03-01T12:45:29;25429.38;;;-147.39;43.08
3524;BME280;1776;53.330;11.498;2023-03-01T12:50:52;25488.38;;;-147.39;42.36
3524;BME280;1776;53.330;11.498;2023-03-01T12:53:24;25498.53;;;-147.39;42.56
3524;BME280;1776;53.330;11.498;2023-03-01T12:56:19;25533.13;;;-147.39;42.56
3524;BME280;1776;53.330;11.498;2023-03-01T12:59:21;25561.59;;;-147.39;42.07
3524;BME280;1776;53.330;11.498;2023-03-01T13:09:41;25604.31;;;-147.39;42.01
3524;BME280;1776;53.330;11.498;2023-03-01T13:13:11;25651.09;;;-147.39;40.91
3524;BME280;1776;53.330;11.498;2023-03-01T13:17:52;25642.97;;;-147.39;41.07
3524;BME280;1776;53.330;11.498;2023-03-01T13:20:21;25586.00;;;-147.39;41.66
3524;BME280;1776;53.330;11.498;2023-03-01T13:23:04;25640.94;;;-147.39;40.65
3524;BME280;1776;53.330;11.498;2023-03-01T13:25:30;25649.06;;;-147.39;41.20
3524;BME280;1776;53.330;11.498;2023-03-01T13:28:32;25630.75;;;-147.39;40.47
3524;BME280;1776;53.330;11.498;2023-03-01T13:31:11;25653.13;;;-147.39;40.54
3524;BME280;1776;53.330;11.498;2023-03-01T13:33:56;25659.25;;;-147.39;41.33
3524;BME280;1776;53.330;11.498;2023-03-01T13:46:53;25586.00;;;-147.39;40.98
3524;BME280;1776;53.330;11.498;2023-03-01T13:49:27;25655.16;;;-147.39;40.47
3524;BME280;1776;53.330;11.498;2023-03-01T13:51:53;25655.16;;;-147.39;40.70
3524;BME280;1776;53.330;11.498;2023-03-01T13:54:26;25661.28;;;-147.39;40.71
3524;BME280;1776;53.330;11.498;2023-03-01T13:56:53;25689.75;;;-147.39;41.06
3524;BME280;1776;53.330;11.498;2023-03-01T13:59:21;25697.88;;;-147.39;40.15
3524;BME280;1776;53.330;11.498;2023-03-01T14:01:54;25691.78;;;-147.39;39.84
3524;BME280;1776;53.330;11.498;2023-03-01T14:04:28;25785.34;;;-147.39;39.68
3524;BME280;1776;53.330;11.498;2023-03-01T14:07:17;25689.75;;;-147.39;39.47
3524;BME280;1776;53.330;11.498;2023-03-01T14:09:45;25679.56;;;-147.39;40.01
3524;BME280;1776;53.330;11.498;2023-03-01T14:12:23;25716.19;;;-147.39;39.06
3524;BME280;1776;53.330;11.498;2023-03-01T14:14:52;25734.50;;;-147.39;39.75
3524;BME280;1776;53.330;11.498;2023-03-01T14:17:48;25708.06;;;-147.39;39.31
3524;BME280;1776;53.330;11.498;2023-03-01T14:20:18;25716.19;;;-147.39;39.75
3524;BME280;1776;53.330;11.498;2023-03-01T14:22:45;25767.03;;;-147.39;39.27
3524;BME280;1776;53.330;11.498;2023-03-01T14:25:26;25732.47;;;-147.39;38.53
3524;BME280;1776;53.330;11.498;2023-03-01T14:28:02;25651.09;;;-147.39;39.24
3524;BME280;1776;53.330;11.498;2023-03-01T14:30:38;25669.41;;;-147.39;39.86
3524;BME280;1776;53.330;11.498;2023-03-01T14:33:18;25708.06;;;-147.39;39.16
3524;BME280;1776;53.330;11.498;2023-03-01T14:38:22;25687.72;;;-147.39;39.62
3524;BME280;1776;53.330;11.498;2023-03-01T14:40:51;25746.69;;;-147.39;39.57
3524;BME280;1776;53.330;11.498;2023-03-01T14:43:20;25758.91;;;-147.39;39.49